ADDS TAF Data INFO
IDs: Format: Raw Decoded Include METARs

Data at: 1515 UTC 16 Jan 2018

KPHX 161451Z 00000KT 10SM FEW150 FEW180 BKN250 12/03 A3012 RMK AO2 SLP193 T01170028 53013

KPHX 161459Z 1615/1718 11005KT P6SM FEW150 SCT180 BKN250
  FM161700 09010G20KT P6SM SCT150 OVC250
  FM162200 09007KT P6SM SCT150 OVC250
  FM170600 10005KT P6SM SCT250